createdAt,value
2022-10-16T04:06:09.221Z,1001.16
2022-10-16T04:27:10.408Z,1001.34
2022-10-16T04:32:09.898Z,1001.21
2022-10-16T04:37:09.840Z,1001.27
2022-10-16T04:42:09.719Z,1001.40
2022-10-16T04:47:09.658Z,1001.39
2022-10-16T04:52:09.584Z,1001.48
2022-10-16T04:57:09.499Z,1001.41
2022-10-16T05:02:10.592Z,1001.26
2022-10-16T05:07:09.531Z,1001.43
2022-10-16T05:12:09.370Z,1001.44
2022-10-16T05:17:09.621Z,1001.40
2022-10-16T05:22:09.224Z,1001.50
2022-10-16T05:27:09.154Z,1001.46
2022-10-16T05:32:09.122Z,1001.61
2022-10-16T05:37:09.170Z,1001.64
2022-10-16T05:42:08.891Z,1001.56
2022-10-16T05:47:08.904Z,1001.67
2022-10-16T05:52:09.712Z,1001.70
2022-10-16T05:57:08.715Z,1001.87
2022-10-16T06:02:08.623Z,1001.94
2022-10-16T06:07:08.556Z,1002.00
2022-10-16T06:12:08.573Z,1001.85
2022-10-16T06:17:08.472Z,1001.99
2022-10-16T06:22:08.330Z,1002.15
2022-10-16T06:27:08.348Z,1002.22
2022-10-16T06:32:08.236Z,1002.22
2022-10-16T06:37:08.126Z,1002.24
2022-10-16T06:42:08.116Z,1002.35
2022-10-16T06:47:08.022Z,1002.37
2022-10-16T06:52:08.006Z,1002.46
2022-10-16T06:57:17.529Z,1002.52
2022-10-16T07:02:17.561Z,1002.49
2022-10-16T07:07:09.412Z,1002.62
2022-10-16T07:12:07.668Z,1002.64
2022-10-16T07:17:07.655Z,1002.65
2022-10-16T07:22:07.741Z,1002.89
2022-10-16T07:27:07.526Z,1002.94
2022-10-16T07:32:07.512Z,1003.12
2022-10-16T07:37:07.501Z,1003.19
2022-10-16T07:42:08.166Z,1003.32
2022-10-16T07:47:08.324Z,1003.27
2022-10-16T07:52:07.287Z,1003.34
2022-10-16T07:57:07.067Z,1003.32
2022-10-16T08:02:07.003Z,1003.29
2022-10-16T08:07:06.903Z,1003.30
2022-10-16T08:12:06.988Z,1003.00
2022-10-16T08:17:06.786Z,1003.04
2022-10-16T08:22:06.758Z,1003.26
2022-10-16T08:27:06.715Z,1003.26
2022-10-16T08:32:06.917Z,1003.21
2022-10-16T08:37:18.103Z,1003.30
2022-10-16T08:42:06.446Z,1003.29
2022-10-16T08:47:06.395Z,1003.32
2022-10-16T08:52:06.309Z,1003.33
2022-10-16T08:57:06.340Z,1003.29
2022-10-16T09:02:06.178Z,1003.18
2022-10-16T09:07:07.026Z,1003.20
2022-10-16T09:12:06.089Z,1003.13
2022-10-16T09:17:06.066Z,1003.21
2022-10-16T09:22:05.923Z,1003.18
2022-10-16T09:27:05.894Z,1003.32
2022-10-16T09:32:05.784Z,1003.38
2022-10-16T09:37:05.760Z,1003.56
2022-10-16T09:42:05.686Z,1003.42
2022-10-16T09:47:05.696Z,1003.35
2022-10-16T09:52:05.673Z,1003.41
2022-10-16T09:57:05.469Z,1003.45
2022-10-16T10:02:05.413Z,1003.46
2022-10-16T10:07:05.309Z,1003.53
2022-10-16T10:12:05.835Z,1003.48
2022-10-16T10:17:05.332Z,1003.51
2022-10-16T10:22:05.094Z,1003.61
2022-10-16T10:27:06.014Z,1003.76
2022-10-16T10:32:05.988Z,1003.63
2022-10-16T10:37:04.921Z,1003.73
2022-10-16T10:42:04.834Z,1003.74
2022-10-16T10:47:04.788Z,1003.79
2022-10-16T10:52:04.697Z,1003.82
2022-10-16T10:57:04.667Z,1003.87
2022-10-16T11:02:04.707Z,1003.89
2022-10-16T11:07:04.600Z,1003.83
2022-10-16T11:12:04.519Z,1003.74
2022-10-16T11:17:04.380Z,1003.89
2022-10-16T11:22:04.308Z,1003.88
2022-10-16T11:27:04.321Z,1003.85
2022-10-16T11:32:04.214Z,1003.81
2022-10-16T11:37:04.211Z,1003.78
2022-10-16T11:42:04.052Z,1003.93
2022-10-16T11:47:28.741Z,1003.95
2022-10-16T11:52:05.701Z,1003.95
2022-10-16T11:57:03.846Z,1004.00
2022-10-16T12:02:03.792Z,1004.03
2022-10-16T12:07:03.837Z,1003.97
2022-10-16T12:12:03.661Z,1004.00
2022-10-16T12:17:03.585Z,1003.98
2022-10-16T12:22:03.500Z,1004.01
2022-10-16T12:27:03.432Z,1003.96
2022-10-16T12:32:03.440Z,1004.09
2022-10-16T12:37:03.347Z,1004.14
2022-10-16T12:42:03.267Z,1004.05
2022-10-16T12:47:03.188Z,1004.10
2022-10-16T12:52:05.566Z,1004.23
2022-10-16T12:57:03.195Z,1004.22
2022-10-16T13:02:03.115Z,1004.20
2022-10-16T13:07:02.925Z,1004.23
2022-10-16T13:12:03.693Z,1004.19
2022-10-16T13:17:02.781Z,1004.23
2022-10-16T13:22:02.819Z,1004.27
2022-10-16T13:27:02.760Z,1004.27
2022-10-16T13:32:02.600Z,1004.27
2022-10-16T13:37:02.492Z,1004.24
2022-10-16T13:42:04.904Z,1004.27
2022-10-16T13:47:03.379Z,1004.25
2022-10-16T13:52:02.319Z,1004.40
2022-10-16T13:57:09.394Z,1004.43
2022-10-16T14:02:03.263Z,1004.57
2022-10-16T14:07:02.108Z,1004.48
2022-10-16T14:12:02.051Z,1004.57
2022-10-16T14:17:01.960Z,1004.51
2022-10-16T14:22:01.922Z,1004.61
2022-10-16T14:27:01.830Z,1004.66
2022-10-16T14:32:01.780Z,1004.56
2022-10-16T14:37:01.747Z,1004.62
2022-10-16T14:42:01.663Z,1004.56
2022-10-16T14:47:01.563Z,1004.59
2022-10-16T14:52:01.505Z,1004.77
2022-10-16T14:57:01.463Z,1004.70
2022-10-16T15:02:01.356Z,1004.87
2022-10-16T15:07:01.303Z,1004.95
2022-10-16T15:12:06.888Z,1005.00
2022-10-16T15:17:01.218Z,1005.04
2022-10-16T15:22:05.777Z,1005.12
2022-10-16T15:27:01.041Z,1005.10
2022-10-16T15:32:01.050Z,1005.17
2022-10-16T15:37:00.918Z,1005.15
2022-10-16T15:42:00.873Z,1005.23
2022-10-16T15:47:00.782Z,1005.43
2022-10-16T15:52:00.930Z,1005.48
2022-10-16T15:57:00.747Z,1005.43
2022-10-16T16:02:00.773Z,1005.41
2022-10-16T16:07:00.633Z,1005.55
2022-10-16T16:12:00.539Z,1005.64
2022-10-16T16:17:00.396Z,1005.63
2022-10-16T16:22:00.486Z,1005.67
2022-10-16T16:27:00.421Z,1005.73
2022-10-16T16:32:00.167Z,1005.91
2022-10-16T16:37:00.093Z,1005.93
2022-10-16T16:42:00.175Z,1006.06
2022-10-16T16:46:59.978Z,1006.06
2022-10-16T16:51:59.933Z,1006.27
2022-10-16T16:56:59.899Z,1006.24
2022-10-16T17:02:00.360Z,1006.32
2022-10-16T17:06:59.788Z,1006.48
2022-10-16T17:11:59.712Z,1006.58
2022-10-16T17:16:59.662Z,1006.55
2022-10-16T17:21:59.525Z,1006.68
2022-10-16T17:26:59.541Z,1006.73
2022-10-16T17:31:59.493Z,1006.74
2022-10-16T17:36:59.292Z,1006.86
2022-10-16T17:41:59.211Z,1006.83
2022-10-16T17:46:59.164Z,1006.89
2022-10-16T17:51:59.170Z,1006.98
2022-10-16T17:56:59.067Z,1007.02
2022-10-16T18:01:59.024Z,1007.27
2022-10-16T18:06:58.946Z,1007.29
2022-10-16T18:11:59.921Z,1007.29
2022-10-16T18:16:58.774Z,1007.42
2022-10-16T18:21:58.843Z,1007.51
2022-10-16T18:26:58.658Z,1007.55
2022-10-16T18:31:58.612Z,1007.64
2022-10-16T18:36:58.653Z,1007.75
2022-10-16T18:41:58.430Z,1007.78
2022-10-16T18:46:58.358Z,1007.76
2022-10-16T18:51:58.283Z,1007.75
2022-10-16T18:56:58.241Z,1007.84
2022-10-16T19:01:58.259Z,1007.76
2022-10-16T19:06:58.079Z,1007.62
2022-10-16T19:11:58.063Z,1007.60
2022-10-16T19:16:58.098Z,1007.68
2022-10-16T19:21:57.885Z,1007.85
2022-10-16T19:26:57.825Z,1007.87
2022-10-16T19:31:57.732Z,1007.90
2022-10-16T19:36:57.665Z,1008.09
2022-10-16T19:41:57.729Z,1008.14
2022-10-16T19:46:57.806Z,1008.18
2022-10-16T19:51:57.593Z,1008.31
2022-10-16T19:56:57.424Z,1008.28
2022-10-16T20:01:57.406Z,1008.20
2022-10-16T20:06:57.294Z,1008.27
2022-10-16T20:11:57.217Z,1008.18
2022-10-16T20:16:57.210Z,1008.19
2022-10-16T20:21:57.142Z,1008.20
2022-10-16T20:26:57.079Z,1008.27
2022-10-16T20:31:56.924Z,1008.27
2022-10-16T20:36:56.934Z,1008.24
2022-10-16T20:41:56.789Z,1008.32
2022-10-16T20:46:56.773Z,1008.41
2022-10-16T20:51:56.697Z,1008.47
2022-10-16T20:56:56.690Z,1008.56
2022-10-16T21:01:56.771Z,1008.48
2022-10-16T21:06:56.488Z,1008.61
2022-10-16T21:11:56.416Z,1008.68
2022-10-16T21:16:56.328Z,1008.81
2022-10-16T21:21:56.292Z,1008.84
2022-10-16T21:26:56.240Z,1008.87
2022-10-16T21:31:56.135Z,1008.93
2022-10-16T21:36:56.086Z,1009.00
2022-10-16T21:41:56.040Z,1009.02
2022-10-16T21:46:55.932Z,1009.02
2022-10-16T21:51:55.883Z,1008.97
2022-10-16T21:56:55.863Z,1008.88
2022-10-16T22:01:55.754Z,1008.95
2022-10-16T22:06:55.695Z,1008.93
2022-10-16T22:11:55.592Z,1008.99
2022-10-16T22:16:55.517Z,1008.98
2022-10-16T22:21:55.456Z,1009.04
2022-10-16T22:26:55.410Z,1009.09
2022-10-16T22:31:55.358Z,1009.18
2022-10-16T22:36:55.555Z,1009.32
2022-10-16T22:41:55.198Z,1009.36
2022-10-16T22:46:55.157Z,1009.28
2022-10-16T22:51:55.082Z,1009.21
2022-10-16T22:56:55.010Z,1009.16
2022-10-16T23:01:54.917Z,1009.25
2022-10-16T23:06:54.838Z,1009.15
2022-10-16T23:11:54.784Z,1009.31
2022-10-16T23:16:54.699Z,1009.30
2022-10-16T23:21:54.620Z,1009.30
2022-10-16T23:26:54.650Z,1009.42
2022-10-16T23:31:54.507Z,1009.42
2022-10-16T23:36:54.432Z,1009.44
2022-10-16T23:41:54.364Z,1009.48
2022-10-16T23:46:54.282Z,1009.47
2022-10-16T23:51:54.225Z,1009.43
2022-10-16T23:56:54.180Z,1009.46
